sensor_id;sensor_type;location;lat;lon;timestamp;pressure;altitude;pressure_sealevel;temperature;humidity
34034;BME280;63481;52.588;22.472;2022-09-13T00:00:31;75867.45;;;-142.04;100.00
34034;BME280;63481;52.588;22.472;2022-09-13T00:01:05;75870.43;;;-142.04;100.00
34034;BME280;63481;52.588;22.472;2022-09-13T00:01:39;75868.44;;;-142.04;100.00
34034;BME280;63481;52.588;22.472;2022-09-13T00:02:11;75866.45;;;-142.04;100.00
34034;BME280;63481;52.588;22.472;2022-09-13T00:02:43;75876.40;;;-142.04;100.00
34034;BME280;63481;52.588;22.472;2022-09-13T00:03:16;75874.41;;;-142.04;100.00
34034;BME280;63481;52.588;22.472;2022-09-13T00:03:48;75869.44;;;-142.04;100.00
34034;BME280;63481;52.588;22.472;2022-09-13T00:04:20;75871.42;;;-142.04;100.00
34034;BME280;63481;52.588;22.472;2022-09-13T00:04:52;75869.44;;;-142.04;100.00
34034;BME280;63481;52.588;22.472;2022-09-13T00:05:25;75870.43;;;-142.04;100.00
34034;BME280;63481;52.588;22.472;2022-09-13T00:06:05;75858.49;;;-142.04;100.00
34034;BME280;63481;52.588;22.472;2022-09-13T00:06:32;75860.48;;;-142.04;100.00
34034;BME280;63481;52.588;22.472;2022-09-13T00:07:04;75860.48;;;-142.04;100.00
34034;BME280;63481;52.588;22.472;2022-09-13T00:07:36;75864.46;;;-142.04;100.00
34034;BME280;63481;52.588;22.472;2022-09-13T00:08:09;75854.52;;;-142.04;100.00
34034;BME280;63481;52.588;22.472;2022-09-13T00:08:41;75856.50;;;-142.04;100.00
34034;BME280;63481;52.588;22.472;2022-09-13T00:09:14;75856.50;;;-142.04;100.00
34034;BME280;63481;52.588;22.472;2022-09-13T00:09:46;75859.48;;;-142.04;100.00
34034;BME280;63481;52.588;22.472;2022-09-13T00:10:18;75859.48;;;-142.04;100.00
34034;BME280;63481;52.588;22.472;2022-09-13T00:10:50;75858.49;;;-142.04;100.00
34034;BME280;63481;52.588;22.472;2022-09-13T00:11:25;75852.52;;;-142.04;100.00
34034;BME280;63481;52.588;22.472;2022-09-13T00:11:59;75860.48;;;-142.04;100.00
34034;BME280;63481;52.588;22.472;2022-09-13T00:12:31;75860.48;;;-142.04;100.00
34034;BME280;63481;52.588;22.472;2022-09-13T00:13:04;75867.45;;;-142.04;100.00
34034;BME280;63481;52.588;22.472;2022-09-13T00:13:37;75869.44;;;-142.04;100.00
34034;BME280;63481;52.588;22.472;2022-09-13T00:14:09;75867.45;;;-142.04;100.00
34034;BME280;63481;52.588;22.472;2022-09-13T00:14:41;75869.44;;;-142.04;100.00
34034;BME280;63481;52.588;22.472;2022-09-13T00:15:13;75865.45;;;-142.04;100.00
34034;BME280;63481;52.588;22.472;2022-09-13T00:15:47;75867.45;;;-142.04;100.00
34034;BME280;63481;52.588;22.472;2022-09-13T00:16:22;75864.46;;;-142.04;100.00
34034;BME280;63481;52.588;22.472;2022-09-13T00:16:55;75865.45;;;-142.04;100.00
34034;BME280;63481;52.588;22.472;2022-09-13T00:17:28;75869.44;;;-142.04;100.00
34034;BME280;63481;52.588;22.472;2022-09-13T00:18:00;75869.44;;;-142.04;100.00
34034;BME280;63481;52.588;22.472;2022-09-13T00:18:32;75879.38;;;-142.04;100.00
34034;BME280;63481;52.588;22.472;2022-09-13T00:19:04;75880.38;;;-142.04;100.00
34034;BME280;63481;52.588;22.472;2022-09-13T00:19:36;75880.38;;;-142.04;100.00
34034;BME280;63481;52.588;22.472;2022-09-13T00:20:09;75884.36;;;-142.04;100.00
34034;BME280;63481;52.588;22.472;2022-09-13T00:20:41;75894.30;;;-142.04;100.00
34034;BME280;63481;52.588;22.472;2022-09-13T00:21:16;75898.28;;;-142.04;100.00
34034;BME280;63481;52.588;22.472;2022-09-13T00:21:49;75893.31;;;-142.04;100.00
34034;BME280;63481;52.588;22.472;2022-09-13T00:22:21;75890.33;;;-142.04;100.00
34034;BME280;63481;52.588;22.472;2022-09-13T00:22:53;75889.33;;;-142.04;100.00
34034;BME280;63481;52.588;22.472;2022-09-13T00:23:26;75895.30;;;-142.04;100.00
34034;BME280;63481;52.588;22.472;2022-09-13T00:23:58;75892.31;;;-142.04;100.00
34034;BME280;63481;52.588;22.472;2022-09-13T00:24:31;75894.30;;;-142.04;100.00
34034;BME280;63481;52.588;22.472;2022-09-13T00:25:05;75899.28;;;-142.04;100.00
34034;BME280;63481;52.588;22.472;2022-09-13T00:25:38;75902.27;;;-142.04;100.00
34034;BME280;63481;52.588;22.472;2022-09-13T00:26:16;75907.23;;;-142.04;100.00
34034;BME280;63481;52.588;22.472;2022-09-13T00:26:49;75911.21;;;-142.04;100.00
34034;BME280;63481;52.588;22.472;2022-09-13T00:27:21;75910.22;;;-142.04;100.00
34034;BME280;63481;52.588;22.472;2022-09-13T00:27:53;75909.22;;;-142.04;100.00
34034;BME280;63481;52.588;22.472;2022-09-13T00:28:25;75915.19;;;-142.04;100.00
34034;BME280;63481;52.588;22.472;2022-09-13T00:28:58;75916.19;;;-142.04;100.00
34034;BME280;63481;52.588;22.472;2022-09-13T00:29:30;75911.21;;;-142.04;100.00
34034;BME280;63481;52.588;22.472;2022-09-13T00:30:04;75914.20;;;-142.04;100.00
34034;BME280;63481;52.588;22.472;2022-09-13T00:30:36;75912.20;;;-142.04;100.00
34034;BME280;63481;52.588;22.472;2022-09-13T00:31:09;75911.21;;;-142.04;100.00
34034;BME280;63481;52.588;22.472;2022-09-13T00:31:41;75915.19;;;-142.04;100.00
34034;BME280;63481;52.588;22.472;2022-09-13T00:32:14;75916.19;;;-142.04;100.00
34034;BME280;63481;52.588;22.472;2022-09-13T00:32:47;75925.14;;;-142.04;100.00
34034;BME280;63481;52.588;22.472;2022-09-13T00:33:19;75930.11;;;-142.04;100.00
34034;BME280;63481;52.588;22.472;2022-09-13T00:33:51;75933.09;;;-142.04;100.00
34034;BME280;63481;52.588;22.472;2022-09-13T00:34:23;75926.13;;;-142.04;100.00
34034;BME280;63481;52.588;22.472;2022-09-13T00:34:56;75934.09;;;-142.04;100.00
34034;BME280;63481;52.588;22.472;2022-09-13T00:35:28;75936.08;;;-142.04;100.00
34034;BME280;63481;52.588;22.472;2022-09-13T00:36:06;75942.05;;;-142.04;100.00
34034;BME280;63481;52.588;22.472;2022-09-13T00:36:39;75949.01;;;-142.04;100.00
34034;BME280;63481;52.588;22.472;2022-09-13T00:37:11;75951.00;;;-142.04;100.00
34034;BME280;63481;52.588;22.472;2022-09-13T00:37:44;75955.97;;;-142.04;100.00
34034;BME280;63481;52.588;22.472;2022-09-13T00:38:16;75961.94;;;-142.04;100.00
34034;BME280;63481;52.588;22.472;2022-09-13T00:38:48;75962.94;;;-142.04;100.00
34034;BME280;63481;52.588;22.472;2022-09-13T00:39:20;75960.95;;;-142.04;100.00
34034;BME280;63481;52.588;22.472;2022-09-13T00:39:53;75960.95;;;-142.04;100.00
34034;BME280;63481;52.588;22.472;2022-09-13T00:40:25;75957.96;;;-142.04;100.00
34034;BME280;63481;52.588;22.472;2022-09-13T00:40:57;75958.95;;;-142.04;100.00
34034;BME280;63481;52.588;22.472;2022-09-13T00:41:29;75957.96;;;-142.04;100.00
34034;BME280;63481;52.588;22.472;2022-09-13T00:42:02;75961.94;;;-142.04;100.00
34034;BME280;63481;52.588;22.472;2022-09-13T00:42:34;75959.95;;;-142.04;100.00
34034;BME280;63481;52.588;22.472;2022-09-13T00:43:12;75962.94;;;-142.04;100.00
34034;BME280;63481;52.588;22.472;2022-09-13T00:43:51;75955.97;;;-142.04;100.00
34034;BME280;63481;52.588;22.472;2022-09-13T00:44:56;75957.96;;;-142.04;100.00
34034;BME280;63481;52.588;22.472;2022-09-13T00:45:29;75954.98;;;-142.04;100.00
34034;BME280;63481;52.588;22.472;2022-09-13T00:46:01;75955.97;;;-142.04;100.00
34034;BME280;63481;52.588;22.472;2022-09-13T00:46:39;75956.97;;;-142.04;100.00
34034;BME280;63481;52.588;22.472;2022-09-13T00:47:13;75959.95;;;-142.04;100.00
34034;BME280;63481;52.588;22.472;2022-09-13T00:47:58;75958.95;;;-142.04;100.00
34034;BME280;63481;52.588;22.472;2022-09-13T00:48:32;75961.94;;;-142.04;100.00
34034;BME280;63481;52.588;22.472;2022-09-13T00:49:20;75965.92;;;-142.04;100.00
34034;BME280;63481;52.588;22.472;2022-09-13T00:49:57;75968.91;;;-142.04;100.00
34034;BME280;63481;52.588;22.472;2022-09-13T00:50:38;75964.92;;;-142.04;100.00
34034;BME280;63481;52.588;22.472;2022-09-13T00:51:12;75967.91;;;-142.04;100.00
34034;BME280;63481;52.588;22.472;2022-09-13T00:51:53;75969.90;;;-142.04;100.00
34034;BME280;63481;52.588;22.472;2022-09-13T00:52:28;75974.88;;;-142.04;100.00
34034;BME280;63481;52.588;22.472;2022-09-13T00:53:08;75980.84;;;-142.04;100.00
34034;BME280;63481;52.588;22.472;2022-09-13T00:53:43;75983.83;;;-142.04;100.00
34034;BME280;63481;52.588;22.472;2022-09-13T00:54:17;75978.85;;;-142.04;100.00
34034;BME280;63481;52.588;22.472;2022-09-13T00:55:04;75970.89;;;-142.04;100.00
34034;BME280;63481;52.588;22.472;2022-09-13T00:55:43;75961.94;;;-142.04;100.00
34034;BME280;63481;52.588;22.472;2022-09-13T00:56:14;75955.97;;;-142.04;100.00
34034;BME280;63481;52.588;22.472;2022-09-13T00:56:51;75951.00;;;-142.04;100.00
34034;BME280;63481;52.588;22.472;2022-09-13T00:57:24;75949.01;;;-142.04;100.00
34034;BME280;63481;52.588;22.472;2022-09-13T00:58:01;75944.03;;;-142.04;100.00
34034;BME280;63481;52.588;22.472;2022-09-13T00:58:42;75942.05;;;-142.04;100.00
34034;BME280;63481;52.588;22.472;2022-09-13T00:59:21;75946.02;;;-142.04;100.00
34034;BME280;63481;52.588;22.472;2022-09-13T01:00:07;75946.02;;;-142.04;100.00
34034;BME280;63481;52.588;22.472;2022-09-13T01:00:38;75948.02;;;-142.04;100.00
34034;BME280;63481;52.588;22.472;2022-09-13T01:01:12;75952.98;;;-142.04;100.00
34034;BME280;63481;52.588;22.472;2022-09-13T01:01:51;75951.99;;;-142.04;100.00
34034;BME280;63481;52.588;22.472;2022-09-13T01:02:25;75948.02;;;-142.04;100.00
34034;BME280;63481;52.588;22.472;2022-09-13T01:03:00;75936.08;;;-142.04;100.00
34034;BME280;63481;52.588;22.472;2022-09-13T01:03:34;75937.07;;;-142.04;100.00
34034;BME280;63481;52.588;22.472;2022-09-13T01:04:07;75943.04;;;-142.04;100.00
34034;BME280;63481;52.588;22.472;2022-09-13T01:04:40;75942.05;;;-142.04;100.00
34034;BME280;63481;52.588;22.472;2022-09-13T01:05:14;75945.03;;;-142.04;100.00
34034;BME280;63481;52.588;22.472;2022-09-13T01:06:12;75950.00;;;-142.04;100.00
34034;BME280;63481;52.588;22.472;2022-09-13T01:06:45;75952.98;;;-142.04;100.00
34034;BME280;63481;52.588;22.472;2022-09-13T01:07:18;75956.97;;;-142.04;100.00
34034;BME280;63481;52.588;22.472;2022-09-13T01:07:50;75958.95;;;-142.04;100.00
34034;BME280;63481;52.588;22.472;2022-09-13T01:08:23;75959.95;;;-142.04;100.00
34034;BME280;63481;52.588;22.472;2022-09-13T01:08:56;75956.97;;;-142.04;100.00
34034;BME280;63481;52.588;22.472;2022-09-13T01:09:31;75955.97;;;-142.04;100.00
34034;BME280;63481;52.588;22.472;2022-09-13T01:10:05;75946.02;;;-142.04;100.00
34034;BME280;63481;52.588;22.472;2022-09-13T01:10:38;75940.05;;;-142.04;100.00
34034;BME280;63481;52.588;22.472;2022-09-13T01:11:19;75933.09;;;-142.04;100.00
34034;BME280;63481;52.588;22.472;2022-09-13T01:11:51;75930.11;;;-142.04;100.00
34034;BME280;63481;52.588;22.472;2022-09-13T01:13:23;75915.19;;;-142.04;100.00
34034;BME280;63481;52.588;22.472;2022-09-13T01:13:57;75921.16;;;-142.04;100.00
34034;BME280;63481;52.588;22.472;2022-09-13T01:14:31;75923.15;;;-142.04;100.00
34034;BME280;63481;52.588;22.472;2022-09-13T01:15:05;75921.16;;;-142.04;100.00
34034;BME280;63481;52.588;22.472;2022-09-13T01:15:38;75916.19;;;-142.04;100.00
34034;BME280;63481;52.588;22.472;2022-09-13T01:16:10;75922.16;;;-142.04;100.00
34034;BME280;63481;52.588;22.472;2022-09-13T01:16:42;75915.19;;;-142.04;100.00
34034;BME280;63481;52.588;22.472;2022-09-13T01:17:15;75920.16;;;-142.04;100.00
34034;BME280;63481;52.588;22.472;2022-09-13T01:17:48;75926.13;;;-142.04;100.00
34034;BME280;63481;52.588;22.472;2022-09-13T01:18:22;75923.15;;;-142.04;100.00
34034;BME280;63481;52.588;22.472;2022-09-13T01:18:54;75930.11;;;-142.04;100.00
34034;BME280;63481;52.588;22.472;2022-09-13T01:19:27;75933.09;;;-142.04;100.00
34034;BME280;63481;52.588;22.472;2022-09-13T01:20:00;75931.11;;;-142.04;100.00
34034;BME280;63481;52.588;22.472;2022-09-13T01:20:45;75929.12;;;-142.04;100.00
34034;BME280;63481;52.588;22.472;2022-09-13T01:22:52;75945.03;;;-142.04;100.00
34034;BME280;63481;52.588;22.472;2022-09-13T01:24:58;75951.99;;;-142.04;100.00
34034;BME280;63481;52.588;22.472;2022-09-13T01:26:02;75951.00;;;-142.04;100.00
34034;BME280;63481;52.588;22.472;2022-09-13T01:30:09;75947.02;;;-142.04;100.00
34034;BME280;63481;52.588;22.472;2022-09-13T01:30:41;75938.06;;;-142.04;100.00
34034;BME280;63481;52.588;22.472;2022-09-13T01:32:59;75940.05;;;-142.04;100.00
34034;BME280;63481;52.588;22.472;2022-09-13T01:33:55;75941.05;;;-142.04;100.00
34034;BME280;63481;52.588;22.472;2022-09-13T01:37:14;75951.99;;;-142.04;100.00
34034;BME280;63481;52.588;22.472;2022-09-13T01:38:01;75948.02;;;-142.04;100.00
34034;BME280;63481;52.588;22.472;2022-09-13T01:39:48;75948.02;;;-142.04;100.00
34034;BME280;63481;52.588;22.472;2022-09-13T01:40:26;75955.97;;;-142.04;100.00
34034;BME280;63481;52.588;22.472;2022-09-13T01:45:37;75982.83;;;-142.04;100.00
34034;BME280;63481;52.588;22.472;2022-09-13T01:47:13;75992.77;;;-142.04;100.00
34034;BME280;63481;52.588;22.472;2022-09-13T01:47:55;75998.74;;;-142.04;100.00
34034;BME280;63481;52.588;22.472;2022-09-13T01:51:22;75985.81;;;-142.04;100.00
34034;BME280;63481;52.588;22.472;2022-09-13T01:52:12;75986.81;;;-142.04;100.00
34034;BME280;63481;52.588;22.472;2022-09-13T01:52:47;75980.84;;;-142.04;100.00
34034;BME280;63481;52.588;22.472;2022-09-13T01:53:26;75982.83;;;-142.04;100.00
34034;BME280;63481;52.588;22.472;2022-09-13T01:56:11;75981.84;;;-142.04;100.00
34034;BME280;63481;52.588;22.472;2022-09-13T01:57:32;75990.78;;;-142.04;100.00
34034;BME280;63481;52.588;22.472;2022-09-13T01:58:19;75980.84;;;-142.04;100.00
34034;BME280;63481;52.588;22.472;2022-09-13T01:58:59;75977.86;;;-142.04;100.00
34034;BME280;63481;52.588;22.472;2022-09-13T02:00:19;75973.88;;;-142.04;100.00
34034;BME280;63481;52.588;22.472;2022-09-13T02:01:03;75968.91;;;-142.04;100.00
34034;BME280;63481;52.588;22.472;2022-09-13T02:01:43;75966.91;;;-142.04;100.00
34034;BME280;63481;52.588;22.472;2022-09-13T02:02:26;75967.91;;;-142.04;100.00
34034;BME280;63481;52.588;22.472;2022-09-13T02:03:11;75974.88;;;-142.04;100.00
34034;BME280;63481;52.588;22.472;2022-09-13T02:03:44;75970.89;;;-142.04;100.00
34034;BME280;63481;52.588;22.472;2022-09-13T02:04:21;75972.88;;;-142.04;100.00
34034;BME280;63481;52.588;22.472;2022-09-13T02:04:57;75983.83;;;-142.04;100.00
34034;BME280;63481;52.588;22.472;2022-09-13T02:05:32;75985.81;;;-142.04;100.00
34034;BME280;63481;52.588;22.472;2022-09-13T02:06:07;75997.75;;;-142.04;100.00
34034;BME280;63481;52.588;22.472;2022-09-13T02:06:44;75995.76;;;-142.04;100.00
34034;BME280;63481;52.588;22.472;2022-09-13T02:07:20;76005.70;;;-142.04;100.00
34034;BME280;63481;52.588;22.472;2022-09-13T02:07:59;76006.70;;;-142.04;100.00
34034;BME280;63481;52.588;22.472;2022-09-13T02:08:48;76014.66;;;-142.04;100.00
34034;BME280;63481;52.588;22.472;2022-09-13T02:09:23;76025.60;;;-142.04;100.00
34034;BME280;63481;52.588;22.472;2022-09-13T02:09:59;76043.50;;;-142.04;100.00
34034;BME280;63481;52.588;22.472;2022-09-13T02:10:37;76054.45;;;-142.04;100.00
34034;BME280;63481;52.588;22.472;2022-09-13T02:11:11;76047.48;;;-142.04;100.00
34034;BME280;63481;52.588;22.472;2022-09-13T02:11:46;76052.45;;;-142.04;100.00
34034;BME280;63481;52.588;22.472;2022-09-13T02:12:22;76047.48;;;-142.04;100.00
34034;BME280;63481;52.588;22.472;2022-09-13T02:12:57;76044.50;;;-142.04;100.00
34034;BME280;63481;52.588;22.472;2022-09-13T02:13:34;76043.50;;;-142.04;100.00
34034;BME280;63481;52.588;22.472;2022-09-13T02:14:18;76039.53;;;-142.04;100.00
34034;BME280;63481;52.588;22.472;2022-09-13T02:14:56;76033.56;;;-142.04;100.00
34034;BME280;63481;52.588;22.472;2022-09-13T02:15:33;76029.58;;;-142.04;100.00
34034;BME280;63481;52.588;22.472;2022-09-13T02:16:11;76027.59;;;-142.04;100.00
34034;BME280;63481;52.588;22.472;2022-09-13T02:17:17;76017.64;;;-142.04;100.00
34034;BME280;63481;52.588;22.472;2022-09-13T02:17:26;76010.68;;;-142.04;100.00
34034;BME280;63481;52.588;22.472;2022-09-13T02:18:56;76003.72;;;-142.04;100.00
34034;BME280;63481;52.588;22.472;2022-09-13T02:20:23;76002.72;;;-142.04;100.00
34034;BME280;63481;52.588;22.472;2022-09-13T02:20:59;75995.76;;;-142.04;100.00
34034;BME280;63481;52.588;22.472;2022-09-13T02:21:35;76005.70;;;-142.04;100.00
34034;BME280;63481;52.588;22.472;2022-09-13T02:22:12;75999.73;;;-142.04;100.00
34034;BME280;63481;52.588;22.472;2022-09-13T02:22:49;75993.77;;;-142.04;100.00
34034;BME280;63481;52.588;22.472;2022-09-13T02:23:31;75999.73;;;-142.04;100.00
34034;BME280;63481;52.588;22.472;2022-09-13T02:24:05;76002.72;;;-142.04;100.00
34034;BME280;63481;52.588;22.472;2022-09-13T02:24:41;75997.75;;;-142.04;100.00
34034;BME280;63481;52.588;22.472;2022-09-13T02:25:18;75990.78;;;-142.04;100.00
34034;BME280;63481;52.588;22.472;2022-09-13T02:25:54;75983.83;;;-142.04;100.00
34034;BME280;63481;52.588;22.472;2022-09-13T02:26:29;75985.81;;;-142.04;100.00
34034;BME280;63481;52.588;22.472;2022-09-13T02:27:06;75984.82;;;-142.04;100.00
34034;BME280;63481;52.588;22.472;2022-09-13T02:27:40;75989.79;;;-142.04;100.00
34034;BME280;63481;52.588;22.472;2022-09-13T02:28:17;75988.80;;;-142.04;100.00
34034;BME280;63481;52.588;22.472;2022-09-13T02:28:51;75994.77;;;-142.04;100.00
34034;BME280;63481;52.588;22.472;2022-09-13T02:29:26;75988.80;;;-142.04;100.00
34034;BME280;63481;52.588;22.472;2022-09-13T02:30:07;75994.77;;;-142.04;100.00
34034;BME280;63481;52.588;22.472;2022-09-13T02:30:40;75993.77;;;-142.04;100.00
34034;BME280;63481;52.588;22.472;2022-09-13T02:31:12;75995.76;;;-142.04;100.00
34034;BME280;63481;52.588;22.472;2022-09-13T02:32:58;76000.73;;;-142.04;100.00
34034;BME280;63481;52.588;22.472;2022-09-13T02:33:34;76007.70;;;-142.04;100.00
34034;BME280;63481;52.588;22.472;2022-09-13T02:34:10;76004.71;;;-142.04;100.00
34034;BME280;63481;52.588;22.472;2022-09-13T02:34:49;76004.71;;;-142.04;100.00
34034;BME280;63481;52.588;22.472;2022-09-13T02:35:30;76003.72;;;-142.04;100.00
34034;BME280;63481;52.588;22.472;2022-09-13T02:36:09;76003.72;;;-142.04;100.00
34034;BME280;63481;52.588;22.472;2022-09-13T02:36:44;76000.73;;;-142.04;100.00
34034;BME280;63481;52.588;22.472;2022-09-13T02:37:18;76002.72;;;-142.04;100.00
34034;BME280;63481;52.588;22.472;2022-09-13T02:37:55;76008.69;;;-142.04;100.00
34034;BME280;63481;52.588;22.472;2022-09-13T02:38:43;76003.72;;;-142.04;100.00
34034;BME280;63481;52.588;22.472;2022-09-13T02:39:16;76002.72;;;-142.04;100.00
34034;BME280;63481;52.588;22.472;2022-09-13T02:39:56;75987.80;;;-142.04;100.00
34034;BME280;63481;52.588;22.472;2022-09-13T02:40:30;75987.80;;;-142.04;100.00
34034;BME280;63481;52.588;22.472;2022-09-13T02:41:06;75993.77;;;-142.04;100.00
34034;BME280;63481;52.588;22.472;2022-09-13T02:42:20;75987.80;;;-142.04;100.00
34034;BME280;63481;52.588;22.472;2022-09-13T02:42:59;75987.80;;;-142.04;100.00
34034;BME280;63481;52.588;22.472;2022-09-13T02:43:38;75984.82;;;-142.04;100.00
34034;BME280;63481;52.588;22.472;2022-09-13T02:44:32;75984.82;;;-142.04;100.00
34034;BME280;63481;52.588;22.472;2022-09-13T02:45:06;75976.86;;;-142.04;100.00
34034;BME280;63481;52.588;22.472;2022-09-13T02:45:50;75978.85;;;-142.04;100.00
34034;BME280;63481;52.588;22.472;2022-09-13T02:46:33;75976.86;;;-142.04;100.00
34034;BME280;63481;52.588;22.472;2022-09-13T02:47:55;75955.97;;;-142.04;100.00
34034;BME280;63481;52.588;22.472;2022-09-13T02:48:43;75954.98;;;-142.04;100.00
34034;BME280;63481;52.588;22.472;2022-09-13T02:49:23;75963.93;;;-142.04;100.00
34034;BME280;63481;52.588;22.472;2022-09-13T02:50:57;75975.87;;;-142.04;100.00
34034;BME280;63481;52.588;22.472;2022-09-13T02:53:16;75976.86;;;-142.04;100.00
34034;BME280;63481;52.588;22.472;2022-09-13T02:54:57;75971.89;;;-142.04;100.00
34034;BME280;63481;52.588;22.472;2022-09-13T02:55:40;75976.86;;;-142.04;100.00
34034;BME280;63481;52.588;22.472;2022-09-13T02:56:33;75971.89;;;-142.04;100.00
34034;BME280;63481;52.588;22.472;2022-09-13T02:58:45;75978.85;;;-142.04;100.00
34034;BME280;63481;52.588;22.472;2022-09-13T02:59:20;75972.88;;;-142.04;100.00
34034;BME280;63481;52.588;22.472;2022-09-13T02:59:54;75975.87;;;-142.04;100.00
34034;BME280;63481;52.588;22.472;2022-09-13T03:00:26;75973.88;;;-142.04;100.00
34034;BME280;63481;52.588;22.472;2022-09-13T03:01:00;75977.86;;;-142.04;100.00
34034;BME280;63481;52.588;22.472;2022-09-13T03:01:34;75980.84;;;-142.04;100.00
34034;BME280;63481;52.588;22.472;2022-09-13T03:02:19;75987.80;;;-142.04;100.00
34034;BME280;63481;52.588;22.472;2022-09-13T03:02:54;75984.82;;;-142.04;100.00
34034;BME280;63481;52.588;22.472;2022-09-13T03:03:28;75989.79;;;-142.04;100.00
34034;BME280;63481;52.588;22.472;2022-09-13T03:04:00;75983.83;;;-142.04;100.00
34034;BME280;63481;52.588;22.472;2022-09-13T03:04:34;75975.87;;;-142.04;100.00
34034;BME280;63481;52.588;22.472;2022-09-13T03:05:06;75966.91;;;-142.04;100.00
34034;BME280;63481;52.588;22.472;2022-09-13T03:05:39;75973.88;;;-142.04;100.00
34034;BME280;63481;52.588;22.472;2022-09-13T03:06:11;75971.89;;;-142.04;100.00
34034;BME280;63481;52.588;22.472;2022-09-13T03:06:43;75969.90;;;-142.04;100.00
34034;BME280;63481;52.588;22.472;2022-09-13T03:07:16;75969.90;;;-142.04;100.00
34034;BME280;63481;52.588;22.472;2022-09-13T03:07:48;75963.93;;;-142.04;100.00
34034;BME280;63481;52.588;22.472;2022-09-13T03:08:22;75969.90;;;-142.04;100.00
34034;BME280;63481;52.588;22.472;2022-09-13T03:08:59;75959.95;;;-142.04;100.00
34034;BME280;63481;52.588;22.472;2022-09-13T03:09:32;75958.95;;;-142.04;100.00
34034;BME280;63481;52.588;22.472;2022-09-13T03:10:07;75954.98;;;-142.04;100.00
34034;BME280;63481;52.588;22.472;2022-09-13T03:15:44;75937.07;;;-142.04;100.00
34034;BME280;63481;52.588;22.472;2022-09-13T03:16:42;75944.03;;;-142.04;100.00
34034;BME280;63481;52.588;22.472;2022-09-13T03:18:27;75946.02;;;-142.04;100.00
34034;BME280;63481;52.588;22.472;2022-09-13T03:19:16;75939.06;;;-142.04;100.00
34034;BME280;63481;52.588;22.472;2022-09-13T03:20:05;75935.08;;;-142.04;100.00
34034;BME280;63481;52.588;22.472;2022-09-13T03:21:57;75939.06;;;-142.04;100.00
34034;BME280;63481;52.588;22.472;2022-09-13T03:22:51;75936.08;;;-142.04;100.00
34034;BME280;63481;52.588;22.472;2022-09-13T03:23:46;75936.08;;;-142.04;100.00
34034;BME280;63481;52.588;22.472;2022-09-13T03:25:25;75931.11;;;-142.04;100.00
34034;BME280;63481;52.588;22.472;2022-09-13T03:27:21;75932.10;;;-142.04;100.00
34034;BME280;63481;52.588;22.472;2022-09-13T03:30:42;75932.10;;;-142.04;100.00
34034;BME280;63481;52.588;22.472;2022-09-13T03:31:26;75935.08;;;-142.04;100.00
34034;BME280;63481;52.588;22.472;2022-09-13T03:34:02;75916.19;;;-142.04;100.00
34034;BME280;63481;52.588;22.472;2022-09-13T03:35:17;75941.05;;;-142.04;100.00
34034;BME280;63481;52.588;22.472;2022-09-13T03:36:03;75940.05;;;-142.04;100.00
34034;BME280;63481;52.588;22.472;2022-09-13T03:36:35;75951.00;;;-142.04;100.00
34034;BME280;63481;52.588;22.472;2022-09-13T03:37:16;75950.00;;;-142.04;100.00
34034;BME280;63481;52.588;22.472;2022-09-13T03:37:56;75956.97;;;-142.04;100.00
34034;BME280;63481;52.588;22.472;2022-09-13T03:38:31;75959.95;;;-142.04;100.00
34034;BME280;63481;52.588;22.472;2022-09-13T03:39:32;75954.98;;;-142.04;100.00
34034;BME280;63481;52.588;22.472;2022-09-13T03:40:11;75966.91;;;-142.04;100.00
34034;BME280;63481;52.588;22.472;2022-09-13T03:40:49;75973.88;;;-142.04;100.00
34034;BME280;63481;52.588;22.472;2022-09-13T03:41:26;75976.86;;;-142.04;100.00
34034;BME280;63481;52.588;22.472;2022-09-13T03:42:00;75968.91;;;-142.04;100.00
34034;BME280;63481;52.588;22.472;2022-09-13T03:42:51;75962.94;;;-142.04;100.00
34034;BME280;63481;52.588;22.472;2022-09-13T03:43:35;75959.95;;;-142.04;100.00
34034;BME280;63481;52.588;22.472;2022-09-13T03:44:11;75959.95;;;-142.04;100.00
34034;BME280;63481;52.588;22.472;2022-09-13T03:44:46;75958.95;;;-142.04;100.00
34034;BME280;63481;52.588;22.472;2022-09-13T03:45:23;75955.97;;;-142.04;100.00
34034;BME280;63481;52.588;22.472;2022-09-13T03:45:58;75954.98;;;-142.04;100.00
34034;BME280;63481;52.588;22.472;2022-09-13T03:46:43;75961.94;;;-142.04;100.00
34034;BME280;63481;52.588;22.472;2022-09-13T03:47:17;75968.91;;;-142.04;100.00
34034;BME280;63481;52.588;22.472;2022-09-13T03:47:51;75962.94;;;-142.04;100.00
34034;BME280;63481;52.588;22.472;2022-09-13T03:48:24;75962.94;;;-142.04;100.00
34034;BME280;63481;52.588;22.472;2022-09-13T03:49:04;75968.91;;;-142.04;100.00
34034;BME280;63481;52.588;22.472;2022-09-13T03:49:38;75971.89;;;-142.04;100.00
34034;BME280;63481;52.588;22.472;2022-09-13T03:50:15;75977.86;;;-142.04;100.00
34034;BME280;63481;52.588;22.472;2022-09-13T03:50:47;75975.87;;;-142.04;100.00
34034;BME280;63481;52.588;22.472;2022-09-13T03:51:21;75976.86;;;-142.04;100.00
34034;BME280;63481;52.588;22.472;2022-09-13T03:51:54;75974.88;;;-142.04;100.00
34034;BME280;63481;52.588;22.472;2022-09-13T03:52:26;75976.86;;;-142.04;100.00
34034;BME280;63481;52.588;22.472;2022-09-13T03:53:02;75980.84;;;-142.04;100.00
34034;BME280;63481;52.588;22.472;2022-09-13T03:53:38;75986.81;;;-142.04;100.00